sensor_id;sensor_type;location;lat;lon;timestamp;P1;durP1;ratioP1;P2;durP2;ratioP2
26756;SDS011;23848;49.798;10.228;2024-01-07T00:02:04;11.40;;;8.75;;
26756;SDS011;23848;49.798;10.228;2024-01-07T00:05:05;14.73;;;9.48;;
26756;SDS011;23848;49.798;10.228;2024-01-07T00:07:50;12.15;;;8.88;;
26756;SDS011;23848;49.798;10.228;2024-01-07T00:10:29;14.75;;;8.95;;
26756;SDS011;23848;49.798;10.228;2024-01-07T00:13:04;15.88;;;9.38;;
26756;SDS011;23848;49.798;10.228;2024-01-07T00:15:45;16.02;;;10.02;;
26756;SDS011;23848;49.798;10.228;2024-01-07T00:18:16;15.50;;;8.63;;
26756;SDS011;23848;49.798;10.228;2024-01-07T00:20:58;15.57;;;9.40;;
26756;SDS011;23848;49.798;10.228;2024-01-07T00:23:47;16.08;;;9.73;;
26756;SDS011;23848;49.798;10.228;2024-01-07T00:26:33;16.77;;;9.45;;
26756;SDS011;23848;49.798;10.228;2024-01-07T00:29:20;17.25;;;10.20;;
26756;SDS011;23848;49.798;10.228;2024-01-07T00:32:34;14.00;;;8.70;;
26756;SDS011;23848;49.798;10.228;2024-01-07T00:35:35;14.70;;;8.98;;
26756;SDS011;23848;49.798;10.228;2024-01-07T00:38:26;14.65;;;9.20;;
26756;SDS011;23848;49.798;10.228;2024-01-07T00:41:17;14.25;;;9.20;;
26756;SDS011;23848;49.798;10.228;2024-01-07T00:47:35;16.85;;;8.60;;
26756;SDS011;23848;49.798;10.228;2024-01-07T00:50:24;10.73;;;7.65;;
26756;SDS011;23848;49.798;10.228;2024-01-07T00:53:17;13.98;;;6.80;;
26756;SDS011;23848;49.798;10.228;2024-01-07T00:56:04;11.68;;;7.32;;
26756;SDS011;23848;49.798;10.228;2024-01-07T00:59:09;12.50;;;7.72;;
26756;SDS011;23848;49.798;10.228;2024-01-07T01:01:57;13.57;;;8.35;;
26756;SDS011;23848;49.798;10.228;2024-01-07T01:04:42;9.23;;;5.68;;
26756;SDS011;23848;49.798;10.228;2024-01-07T01:07:45;12.80;;;8.80;;
26756;SDS011;23848;49.798;10.228;2024-01-07T01:10:23;14.55;;;9.45;;
26756;SDS011;23848;49.798;10.228;2024-01-07T01:13:10;12.90;;;9.48;;
26756;SDS011;23848;49.798;10.228;2024-01-07T01:18:53;11.75;;;8.13;;
26756;SDS011;23848;49.798;10.228;2024-01-07T01:21:47;12.70;;;8.70;;
26756;SDS011;23848;49.798;10.228;2024-01-07T01:25:00;13.88;;;9.07;;
26756;SDS011;23848;49.798;10.228;2024-01-07T01:27:36;14.98;;;8.10;;
26756;SDS011;23848;49.798;10.228;2024-01-07T01:36:25;15.88;;;10.68;;
26756;SDS011;23848;49.798;10.228;2024-01-07T01:39:17;14.82;;;9.90;;
26756;SDS011;23848;49.798;10.228;2024-01-07T01:41:57;13.60;;;8.07;;
26756;SDS011;23848;49.798;10.228;2024-01-07T01:44:46;13.65;;;8.57;;
26756;SDS011;23848;49.798;10.228;2024-01-07T01:47:26;17.35;;;9.95;;
26756;SDS011;23848;49.798;10.228;2024-01-07T01:50:03;11.65;;;8.23;;
26756;SDS011;23848;49.798;10.228;2024-01-07T01:52:48;11.35;;;8.40;;
26756;SDS011;23848;49.798;10.228;2024-01-07T01:55:26;11.10;;;7.10;;
26756;SDS011;23848;49.798;10.228;2024-01-07T01:57:58;11.68;;;8.18;;
26756;SDS011;23848;49.798;10.228;2024-01-07T02:00:33;13.60;;;8.32;;
26756;SDS011;23848;49.798;10.228;2024-01-07T02:03:29;11.02;;;7.53;;
26756;SDS011;23848;49.798;10.228;2024-01-07T02:06:21;14.40;;;7.80;;
26756;SDS011;23848;49.798;10.228;2024-01-07T02:12:36;11.43;;;7.50;;
26756;SDS011;23848;49.798;10.228;2024-01-07T02:15:27;11.07;;;7.30;;
26756;SDS011;23848;49.798;10.228;2024-01-07T02:18:13;10.82;;;6.30;;
26756;SDS011;23848;49.798;10.228;2024-01-07T02:20:58;11.00;;;7.38;;
26756;SDS011;23848;49.798;10.228;2024-01-07T02:23:35;11.15;;;7.32;;
26756;SDS011;23848;49.798;10.228;2024-01-07T02:26:39;10.93;;;7.38;;
26756;SDS011;23848;49.798;10.228;2024-01-07T02:29:17;11.48;;;7.13;;
26756;SDS011;23848;49.798;10.228;2024-01-07T02:32:35;12.50;;;7.40;;
26756;SDS011;23848;49.798;10.228;2024-01-07T02:35:23;11.45;;;7.50;;
26756;SDS011;23848;49.798;10.228;2024-01-07T02:38:15;23.45;;;12.65;;
26756;SDS011;23848;49.798;10.228;2024-01-07T02:40:54;14.00;;;9.18;;
26756;SDS011;23848;49.798;10.228;2024-01-07T02:43:42;12.82;;;7.55;;
26756;SDS011;23848;49.798;10.228;2024-01-07T02:46:23;11.60;;;7.70;;
26756;SDS011;23848;49.798;10.228;2024-01-07T02:49:08;12.02;;;7.22;;
26756;SDS011;23848;49.798;10.228;2024-01-07T02:52:00;12.02;;;7.80;;
26756;SDS011;23848;49.798;10.228;2024-01-07T02:54:40;12.93;;;7.13;;
26756;SDS011;23848;49.798;10.228;2024-01-07T02:57:14;10.95;;;7.30;;
26756;SDS011;23848;49.798;10.228;2024-01-07T03:00:02;13.45;;;7.82;;
26756;SDS011;23848;49.798;10.228;2024-01-07T03:03:05;12.07;;;7.07;;
26756;SDS011;23848;49.798;10.228;2024-01-07T03:05:39;13.13;;;6.90;;
26756;SDS011;23848;49.798;10.228;2024-01-07T03:08:11;10.13;;;6.60;;
26756;SDS011;23848;49.798;10.228;2024-01-07T03:11:03;10.68;;;6.68;;
26756;SDS011;23848;49.798;10.228;2024-01-07T03:13:41;12.88;;;7.07;;
26756;SDS011;23848;49.798;10.228;2024-01-07T03:16:24;11.00;;;6.95;;
26756;SDS011;23848;49.798;10.228;2024-01-07T03:19:07;14.23;;;6.93;;
26756;SDS011;23848;49.798;10.228;2024-01-07T03:21:48;11.95;;;6.70;;
26756;SDS011;23848;49.798;10.228;2024-01-07T03:24:23;12.40;;;6.95;;
26756;SDS011;23848;49.798;10.228;2024-01-07T03:27:04;11.00;;;6.63;;
26756;SDS011;23848;49.798;10.228;2024-01-07T03:29:41;10.00;;;6.40;;
26756;SDS011;23848;49.798;10.228;2024-01-07T03:32:44;11.23;;;6.40;;
26756;SDS011;23848;49.798;10.228;2024-01-07T03:35:23;13.30;;;7.47;;
26756;SDS011;23848;49.798;10.228;2024-01-07T03:37:57;11.52;;;7.18;;
26756;SDS011;23848;49.798;10.228;2024-01-07T03:40:30;12.07;;;6.85;;
26756;SDS011;23848;49.798;10.228;2024-01-07T03:43:10;11.18;;;7.07;;
26756;SDS011;23848;49.798;10.228;2024-01-07T03:45:51;11.00;;;6.40;;
26756;SDS011;23848;49.798;10.228;2024-01-07T03:48:33;12.05;;;5.90;;
26756;SDS011;23848;49.798;10.228;2024-01-07T03:51:09;9.25;;;5.32;;
26756;SDS011;23848;49.798;10.228;2024-01-07T03:53:41;9.20;;;5.10;;
26756;SDS011;23848;49.798;10.228;2024-01-07T03:56:26;9.10;;;5.82;;
26756;SDS011;23848;49.798;10.228;2024-01-07T03:59:08;10.35;;;5.65;;
26756;SDS011;23848;49.798;10.228;2024-01-07T04:01:41;8.43;;;5.40;;
26756;SDS011;23848;49.798;10.228;2024-01-07T04:04:16;10.02;;;5.75;;
26756;SDS011;23848;49.798;10.228;2024-01-07T04:06:46;9.55;;;5.18;;
26756;SDS011;23848;49.798;10.228;2024-01-07T04:09:18;9.43;;;5.82;;
26756;SDS011;23848;49.798;10.228;2024-01-07T04:11:51;11.15;;;5.97;;
26756;SDS011;23848;49.798;10.228;2024-01-07T04:14:27;7.57;;;5.43;;
26756;SDS011;23848;49.798;10.228;2024-01-07T04:17:07;10.40;;;6.03;;
26756;SDS011;23848;49.798;10.228;2024-01-07T04:19:42;8.88;;;5.38;;
26756;SDS011;23848;49.798;10.228;2024-01-07T04:22:22;8.30;;;5.00;;
26756;SDS011;23848;49.798;10.228;2024-01-07T04:24:53;9.25;;;5.93;;
26756;SDS011;23848;49.798;10.228;2024-01-07T04:27:27;7.45;;;4.47;;
26756;SDS011;23848;49.798;10.228;2024-01-07T04:29:56;8.38;;;5.07;;
26756;SDS011;23848;49.798;10.228;2024-01-07T04:32:26;10.23;;;5.78;;
26756;SDS011;23848;49.798;10.228;2024-01-07T04:35:02;10.82;;;5.90;;
26756;SDS011;23848;49.798;10.228;2024-01-07T04:37:42;9.27;;;5.95;;
26756;SDS011;23848;49.798;10.228;2024-01-07T04:40:15;8.00;;;4.60;;
26756;SDS011;23848;49.798;10.228;2024-01-07T04:42:44;10.38;;;5.28;;
26756;SDS011;23848;49.798;10.228;2024-01-07T04:45:13;10.63;;;5.82;;
26756;SDS011;23848;49.798;10.228;2024-01-07T04:47:41;9.60;;;5.40;;
26756;SDS011;23848;49.798;10.228;2024-01-07T04:50:14;8.95;;;4.38;;
26756;SDS011;23848;49.798;10.228;2024-01-07T04:52:46;8.05;;;4.97;;
26756;SDS011;23848;49.798;10.228;2024-01-07T04:55:16;9.40;;;5.40;;
26756;SDS011;23848;49.798;10.228;2024-01-07T04:57:46;8.93;;;5.18;;
26756;SDS011;23848;49.798;10.228;2024-01-07T05:00:17;9.70;;;5.28;;
26756;SDS011;23848;49.798;10.228;2024-01-07T05:02:49;9.75;;;5.70;;
26756;SDS011;23848;49.798;10.228;2024-01-07T05:05:20;9.10;;;4.85;;
26756;SDS011;23848;49.798;10.228;2024-01-07T05:07:48;8.50;;;5.25;;
26756;SDS011;23848;49.798;10.228;2024-01-07T05:10:22;8.70;;;5.20;;
26756;SDS011;23848;49.798;10.228;2024-01-07T05:12:50;8.65;;;5.18;;
26756;SDS011;23848;49.798;10.228;2024-01-07T05:15:23;8.27;;;4.87;;
26756;SDS011;23848;49.798;10.228;2024-01-07T05:18:00;9.95;;;4.40;;
26756;SDS011;23848;49.798;10.228;2024-01-07T05:20:33;6.32;;;4.15;;
26756;SDS011;23848;49.798;10.228;2024-01-07T05:23:02;7.80;;;3.70;;
26756;SDS011;23848;49.798;10.228;2024-01-07T05:25:30;8.32;;;4.03;;
26756;SDS011;23848;49.798;10.228;2024-01-07T05:28:00;7.55;;;3.97;;
26756;SDS011;23848;49.798;10.228;2024-01-07T05:30:29;7.38;;;3.75;;
26756;SDS011;23848;49.798;10.228;2024-01-07T05:32:58;7.85;;;4.75;;
26756;SDS011;23848;49.798;10.228;2024-01-07T05:35:28;6.10;;;4.18;;
26756;SDS011;23848;49.798;10.228;2024-01-07T05:38:02;8.25;;;5.05;;
26756;SDS011;23848;49.798;10.228;2024-01-07T05:40:31;8.48;;;4.78;;
26756;SDS011;23848;49.798;10.228;2024-01-07T05:42:59;8.77;;;4.18;;
26756;SDS011;23848;49.798;10.228;2024-01-07T05:45:28;7.35;;;4.60;;
26756;SDS011;23848;49.798;10.228;2024-01-07T05:47:57;6.47;;;3.95;;
26756;SDS011;23848;49.798;10.228;2024-01-07T05:50:26;7.22;;;4.35;;
26756;SDS011;23848;49.798;10.228;2024-01-07T05:52:59;6.95;;;3.67;;
26756;SDS011;23848;49.798;10.228;2024-01-07T05:55:35;6.28;;;4.43;;
26756;SDS011;23848;49.798;10.228;2024-01-07T05:58:07;7.80;;;4.50;;
26756;SDS011;23848;49.798;10.228;2024-01-07T06:00:37;7.57;;;4.30;;
26756;SDS011;23848;49.798;10.228;2024-01-07T06:03:06;8.43;;;4.35;;
26756;SDS011;23848;49.798;10.228;2024-01-07T06:05:35;6.57;;;4.15;;
26756;SDS011;23848;49.798;10.228;2024-01-07T06:08:06;8.45;;;4.22;;
26756;SDS011;23848;49.798;10.228;2024-01-07T06:10:39;7.45;;;4.18;;
26756;SDS011;23848;49.798;10.228;2024-01-07T06:13:08;6.00;;;3.63;;
26756;SDS011;23848;49.798;10.228;2024-01-07T06:15:37;7.00;;;4.13;;
26756;SDS011;23848;49.798;10.228;2024-01-07T06:18:05;7.30;;;4.20;;
26756;SDS011;23848;49.798;10.228;2024-01-07T06:20:34;8.00;;;4.55;;
26756;SDS011;23848;49.798;10.228;2024-01-07T06:23:03;7.53;;;4.43;;
26756;SDS011;23848;49.798;10.228;2024-01-07T06:25:33;7.78;;;3.95;;
26756;SDS011;23848;49.798;10.228;2024-01-07T06:28:03;7.28;;;3.75;;
26756;SDS011;23848;49.798;10.228;2024-01-07T06:30:32;8.05;;;4.63;;
26756;SDS011;23848;49.798;10.228;2024-01-07T06:33:03;7.40;;;4.15;;
26756;SDS011;23848;49.798;10.228;2024-01-07T06:35:32;6.15;;;3.90;;
26756;SDS011;23848;49.798;10.228;2024-01-07T06:38:01;8.18;;;4.05;;
26756;SDS011;23848;49.798;10.228;2024-01-07T06:40:30;8.18;;;4.38;;
26756;SDS011;23848;49.798;10.228;2024-01-07T06:43:00;7.53;;;4.22;;
26756;SDS011;23848;49.798;10.228;2024-01-07T06:45:31;7.90;;;3.90;;
26756;SDS011;23848;49.798;10.228;2024-01-07T06:47:59;7.70;;;4.57;;
26756;SDS011;23848;49.798;10.228;2024-01-07T06:50:28;6.55;;;3.92;;
26756;SDS011;23848;49.798;10.228;2024-01-07T06:52:57;6.68;;;3.97;;
26756;SDS011;23848;49.798;10.228;2024-01-07T06:55:26;6.60;;;3.80;;
26756;SDS011;23848;49.798;10.228;2024-01-07T06:57:54;6.07;;;3.72;;
26756;SDS011;23848;49.798;10.228;2024-01-07T07:00:23;6.60;;;3.42;;
26756;SDS011;23848;49.798;10.228;2024-01-07T07:02:53;8.50;;;3.67;;
26756;SDS011;23848;49.798;10.228;2024-01-07T07:05:24;6.40;;;3.40;;
26756;SDS011;23848;49.798;10.228;2024-01-07T07:07:53;4.82;;;3.17;;
26756;SDS011;23848;49.798;10.228;2024-01-07T07:10:22;7.35;;;3.28;;
26756;SDS011;23848;49.798;10.228;2024-01-07T07:12:50;5.93;;;3.22;;
26756;SDS011;23848;49.798;10.228;2024-01-07T07:15:21;6.22;;;3.40;;
26756;SDS011;23848;49.798;10.228;2024-01-07T07:17:54;4.88;;;3.13;;
26756;SDS011;23848;49.798;10.228;2024-01-07T07:20:23;4.40;;;2.88;;
26756;SDS011;23848;49.798;10.228;2024-01-07T07:22:52;5.60;;;3.20;;
26756;SDS011;23848;49.798;10.228;2024-01-07T07:25:23;5.95;;;2.85;;
26756;SDS011;23848;49.798;10.228;2024-01-07T07:27:53;5.22;;;3.28;;
26756;SDS011;23848;49.798;10.228;2024-01-07T07:30:25;5.32;;;3.38;;
26756;SDS011;23848;49.798;10.228;2024-01-07T07:32:57;6.05;;;3.70;;
26756;SDS011;23848;49.798;10.228;2024-01-07T07:35:25;7.38;;;3.72;;
26756;SDS011;23848;49.798;10.228;2024-01-07T07:37:58;4.60;;;2.70;;
26756;SDS011;23848;49.798;10.228;2024-01-07T07:40:29;5.00;;;3.05;;
26756;SDS011;23848;49.798;10.228;2024-01-07T07:43:00;6.82;;;3.60;;
26756;SDS011;23848;49.798;10.228;2024-01-07T07:45:30;8.05;;;3.88;;
26756;SDS011;23848;49.798;10.228;2024-01-07T07:48:01;5.05;;;3.65;;
26756;SDS011;23848;49.798;10.228;2024-01-07T07:50:30;5.68;;;2.90;;
26756;SDS011;23848;49.798;10.228;2024-01-07T07:52:58;4.93;;;3.22;;
26756;SDS011;23848;49.798;10.228;2024-01-07T07:55:27;6.70;;;3.50;;
26756;SDS011;23848;49.798;10.228;2024-01-07T07:57:56;6.25;;;4.22;;
26756;SDS011;23848;49.798;10.228;2024-01-07T08:00:25;5.75;;;4.00;;
26756;SDS011;23848;49.798;10.228;2024-01-07T08:02:59;6.18;;;3.65;;
26756;SDS011;23848;49.798;10.228;2024-01-07T08:05:43;5.05;;;3.30;;
26756;SDS011;23848;49.798;10.228;2024-01-07T08:11:27;7.53;;;3.92;;
26756;SDS011;23848;49.798;10.228;2024-01-07T08:14:37;6.57;;;3.80;;
26756;SDS011;23848;49.798;10.228;2024-01-07T08:17:56;6.28;;;3.60;;
26756;SDS011;23848;49.798;10.228;2024-01-07T08:24:06;5.93;;;3.50;;
26756;SDS011;23848;49.798;10.228;2024-01-07T08:26:47;5.82;;;3.38;;
26756;SDS011;23848;49.798;10.228;2024-01-07T08:29:49;6.63;;;4.30;;
26756;SDS011;23848;49.798;10.228;2024-01-07T08:38:36;4.90;;;3.28;;
26756;SDS011;23848;49.798;10.228;2024-01-07T08:41:55;7.88;;;4.45;;
26756;SDS011;23848;49.798;10.228;2024-01-07T08:44:41;5.90;;;3.25;;
26756;SDS011;23848;49.798;10.228;2024-01-07T08:47:35;6.18;;;4.18;;
26756;SDS011;23848;49.798;10.228;2024-01-07T08:53:27;6.00;;;4.95;;
26756;SDS011;23848;49.798;10.228;2024-01-07T08:56:07;8.68;;;5.20;;
26756;SDS011;23848;49.798;10.228;2024-01-07T08:58:43;7.57;;;4.32;;
26756;SDS011;23848;49.798;10.228;2024-01-07T09:01:29;7.25;;;4.47;;
26756;SDS011;23848;49.798;10.228;2024-01-07T09:04:20;9.77;;;4.40;;
26756;SDS011;23848;49.798;10.228;2024-01-07T09:07:03;9.40;;;5.15;;
26756;SDS011;23848;49.798;10.228;2024-01-07T09:12:47;7.80;;;4.32;;
26756;SDS011;23848;49.798;10.228;2024-01-07T09:18:44;7.43;;;4.68;;
26756;SDS011;23848;49.798;10.228;2024-01-07T09:21:50;6.97;;;4.53;;
26756;SDS011;23848;49.798;10.228;2024-01-07T09:24:35;8.48;;;5.03;;
26756;SDS011;23848;49.798;10.228;2024-01-07T09:27:11;9.15;;;5.03;;
26756;SDS011;23848;49.798;10.228;2024-01-07T09:30:02;9.77;;;6.35;;
26756;SDS011;23848;49.798;10.228;2024-01-07T09:32:38;10.95;;;5.25;;
26756;SDS011;23848;49.798;10.228;2024-01-07T09:35:17;9.27;;;4.75;;
26756;SDS011;23848;49.798;10.228;2024-01-07T09:37:51;8.07;;;4.68;;
26756;SDS011;23848;49.798;10.228;2024-01-07T09:40:27;8.23;;;4.72;;
26756;SDS011;23848;49.798;10.228;2024-01-07T09:43:21;9.27;;;4.93;;
26756;SDS011;23848;49.798;10.228;2024-01-07T09:46:10;8.60;;;4.50;;
26756;SDS011;23848;49.798;10.228;2024-01-07T09:49:05;9.13;;;4.88;;
26756;SDS011;23848;49.798;10.228;2024-01-07T09:51:42;8.80;;;4.82;;
26756;SDS011;23848;49.798;10.228;2024-01-07T09:54:30;7.15;;;4.78;;
26756;SDS011;23848;49.798;10.228;2024-01-07T09:57:09;8.15;;;4.97;;
26756;SDS011;23848;49.798;10.228;2024-01-07T10:00:45;10.35;;;5.03;;
26756;SDS011;23848;49.798;10.228;2024-01-07T10:03:30;7.07;;;4.40;;
26756;SDS011;23848;49.798;10.228;2024-01-07T10:06:46;8.15;;;4.35;;
26756;SDS011;23848;49.798;10.228;2024-01-07T10:10:24;8.35;;;4.97;;
26756;SDS011;23848;49.798;10.228;2024-01-07T10:13:41;8.13;;;4.60;;
26756;SDS011;23848;49.798;10.228;2024-01-07T10:18:56;8.10;;;4.35;;
26756;SDS011;23848;49.798;10.228;2024-01-07T10:20:06;7.68;;;4.85;;
26756;SDS011;23848;49.798;10.228;2024-01-07T10:23:22;8.65;;;5.05;;
26756;SDS011;23848;49.798;10.228;2024-01-07T10:26:26;7.65;;;4.47;;
26756;SDS011;23848;49.798;10.228;2024-01-07T10:29:30;7.32;;;4.47;;
26756;SDS011;23848;49.798;10.228;2024-01-07T10:32:38;8.02;;;3.95;;
26756;SDS011;23848;49.798;10.228;2024-01-07T10:36:12;7.05;;;4.38;;
26756;SDS011;23848;49.798;10.228;2024-01-07T10:42:12;7.20;;;4.28;;
26756;SDS011;23848;49.798;10.228;2024-01-07T10:45:47;8.90;;;4.90;;
26756;SDS011;23848;49.798;10.228;2024-01-07T10:48:51;10.65;;;5.60;;
26756;SDS011;23848;49.798;10.228;2024-01-07T10:51:59;6.70;;;4.43;;
26756;SDS011;23848;49.798;10.228;2024-01-07T10:54:53;8.07;;;5.07;;
26756;SDS011;23848;49.798;10.228;2024-01-07T10:58:12;8.95;;;4.32;;
26756;SDS011;23848;49.798;10.228;2024-01-07T11:01:23;6.05;;;4.07;;
26756;SDS011;23848;49.798;10.228;2024-01-07T11:04:26;8.73;;;4.35;;
26756;SDS011;23848;49.798;10.228;2024-01-07T11:07:30;6.78;;;4.10;;
26756;SDS011;23848;49.798;10.228;2024-01-07T11:13:56;8.77;;;4.45;;
26756;SDS011;23848;49.798;10.228;2024-01-07T11:16:49;8.30;;;4.28;;
26756;SDS011;23848;49.798;10.228;2024-01-07T11:19:59;7.95;;;5.38;;
26756;SDS011;23848;49.798;10.228;2024-01-07T11:26:08;7.00;;;4.22;;
26756;SDS011;23848;49.798;10.228;2024-01-07T11:32:40;6.28;;;3.80;;
26756;SDS011;23848;49.798;10.228;2024-01-07T13:33:10;5.97;;;2.85;;
26756;SDS011;23848;49.798;10.228;2024-01-07T13:35:39;5.22;;;2.35;;
26756;SDS011;23848;49.798;10.228;2024-01-07T13:38:23;5.53;;;3.65;;
26756;SDS011;23848;49.798;10.228;2024-01-07T13:40:51;4.57;;;2.45;;
26756;SDS011;23848;49.798;10.228;2024-01-07T13:43:27;6.05;;;3.28;;
26756;SDS011;23848;49.798;10.228;2024-01-07T13:46:17;5.78;;;3.10;;
26756;SDS011;23848;49.798;10.228;2024-01-07T13:48:52;5.15;;;2.63;;
26756;SDS011;23848;49.798;10.228;2024-01-07T13:51:21;6.03;;;3.13;;
26756;SDS011;23848;49.798;10.228;2024-01-07T13:53:50;5.90;;;3.35;;
26756;SDS011;23848;49.798;10.228;2024-01-07T13:56:20;6.40;;;3.13;;
26756;SDS011;23848;49.798;10.228;2024-01-07T13:58:48;5.68;;;3.33;;
26756;SDS011;23848;49.798;10.228;2024-01-07T14:01:17;6.28;;;3.50;;
26756;SDS011;23848;49.798;10.228;2024-01-07T14:03:46;4.88;;;2.38;;
26756;SDS011;23848;49.798;10.228;2024-01-07T14:06:25;6.50;;;3.58;;
26756;SDS011;23848;49.798;10.228;2024-01-07T14:08:54;4.65;;;2.92;;
26756;SDS011;23848;49.798;10.228;2024-01-07T14:11:25;6.30;;;2.90;;
26756;SDS011;23848;49.798;10.228;2024-01-07T14:13:57;5.45;;;3.00;;
26756;SDS011;23848;49.798;10.228;2024-01-07T14:16:31;5.55;;;2.55;;
26756;SDS011;23848;49.798;10.228;2024-01-07T14:19:05;5.68;;;2.72;;
26756;SDS011;23848;49.798;10.228;2024-01-07T14:21:38;5.80;;;3.13;;
26756;SDS011;23848;49.798;10.228;2024-01-07T14:24:18;5.82;;;2.78;;
26756;SDS011;23848;49.798;10.228;2024-01-07T14:26:47;7.05;;;3.25;;
26756;SDS011;23848;49.798;10.228;2024-01-07T14:29:16;4.95;;;2.38;;
26756;SDS011;23848;49.798;10.228;2024-01-07T14:31:45;4.97;;;2.88;;
26756;SDS011;23848;49.798;10.228;2024-01-07T14:34:18;5.70;;;2.92;;
26756;SDS011;23848;49.798;10.228;2024-01-07T14:36:52;8.73;;;2.85;;
26756;SDS011;23848;49.798;10.228;2024-01-07T14:39:20;5.53;;;3.15;;
26756;SDS011;23848;49.798;10.228;2024-01-07T14:41:49;6.00;;;2.50;;
26756;SDS011;23848;49.798;10.228;2024-01-07T14:44:18;5.40;;;2.40;;
26756;SDS011;23848;49.798;10.228;2024-01-07T14:49:30;4.03;;;2.63;;
26756;SDS011;23848;49.798;10.228;2024-01-07T14:52:00;6.18;;;3.05;;
26756;SDS011;23848;49.798;10.228;2024-01-07T14:54:29;5.72;;;2.95;;
26756;SDS011;23848;49.798;10.228;2024-01-07T14:57:01;6.55;;;3.78;;
26756;SDS011;23848;49.798;10.228;2024-01-07T14:59:30;5.93;;;3.10;;
26756;SDS011;23848;49.798;10.228;2024-01-07T15:01:59;4.35;;;2.63;;
26756;SDS011;23848;49.798;10.228;2024-01-07T15:04:27;5.43;;;2.95;;
26756;SDS011;23848;49.798;10.228;2024-01-07T15:07:04;4.57;;;2.60;;
26756;SDS011;23848;49.798;10.228;2024-01-07T15:09:36;6.78;;;2.80;;
26756;SDS011;23848;49.798;10.228;2024-01-07T15:12:07;6.28;;;3.03;;
26756;SDS011;23848;49.798;10.228;2024-01-07T15:14:40;6.20;;;3.85;;
26756;SDS011;23848;49.798;10.228;2024-01-07T15:17:09;4.30;;;2.70;;
26756;SDS011;23848;49.798;10.228;2024-01-07T15:19:41;3.67;;;2.20;;
26756;SDS011;23848;49.798;10.228;2024-01-07T15:22:11;4.97;;;3.03;;
26756;SDS011;23848;49.798;10.228;2024-01-07T15:24:40;5.47;;;3.30;;
26756;SDS011;23848;49.798;10.228;2024-01-07T15:27:09;4.82;;;2.72;;
26756;SDS011;23848;49.798;10.228;2024-01-07T15:29:37;4.93;;;2.75;;
26756;SDS011;23848;49.798;10.228;2024-01-07T15:32:13;5.53;;;2.92;;
26756;SDS011;23848;49.798;10.228;2024-01-07T15:34:44;4.45;;;2.42;;
26756;SDS011;23848;49.798;10.228;2024-01-07T15:37:15;4.75;;;2.50;;
26756;SDS011;23848;49.798;10.228;2024-01-07T15:39:46;7.03;;;3.00;;
26756;SDS011;23848;49.798;10.228;2024-01-07T15:42:17;4.07;;;2.20;;
26756;SDS011;23848;49.798;10.228;2024-01-07T15:44:49;4.75;;;2.67;;
26756;SDS011;23848;49.798;10.228;2024-01-07T15:47:19;4.60;;;2.90;;
26756;SDS011;23848;49.798;10.228;2024-01-07T15:49:49;5.38;;;2.53;;
26756;SDS011;23848;49.798;10.228;2024-01-07T15:52:20;4.65;;;2.60;;
26756;SDS011;23848;49.798;10.228;2024-01-07T15:54:54;4.03;;;2.65;;
26756;SDS011;23848;49.798;10.228;2024-01-07T15:57:22;6.70;;;3.00;;
26756;SDS011;23848;49.798;10.228;2024-01-07T15:59:52;6.85;;;3.72;;
26756;SDS011;23848;49.798;10.228;2024-01-07T16:02:25;8.57;;;5.03;;
26756;SDS011;23848;49.798;10.228;2024-01-07T16:05:07;5.93;;;3.05;;
26756;SDS011;23848;49.798;10.228;2024-01-07T16:07:42;5.75;;;2.97;;
26756;SDS011;23848;49.798;10.228;2024-01-07T16:10:11;7.40;;;3.92;;
26756;SDS011;23848;49.798;10.228;2024-01-07T16:12:42;4.18;;;2.70;;
26756;SDS011;23848;49.798;10.228;2024-01-07T16:15:16;5.53;;;2.72;;
26756;SDS011;23848;49.798;10.228;2024-01-07T16:17:46;5.03;;;2.22;;
26756;SDS011;23848;49.798;10.228;2024-01-07T16:20:15;4.00;;;2.40;;
26756;SDS011;23848;49.798;10.228;2024-01-07T16:22:45;4.68;;;2.38;;
26756;SDS011;23848;49.798;10.228;2024-01-07T16:25:14;4.65;;;2.70;;
26756;SDS011;23848;49.798;10.228;2024-01-07T16:27:43;3.95;;;1.77;;
26756;SDS011;23848;49.798;10.228;2024-01-07T16:30:12;3.90;;;1.85;;
26756;SDS011;23848;49.798;10.228;2024-01-07T16:32:40;4.20;;;2.00;;
26756;SDS011;23848;49.798;10.228;2024-01-07T16:35:11;4.38;;;2.17;;
26756;SDS011;23848;49.798;10.228;2024-01-07T16:37:40;3.75;;;2.17;;
26756;SDS011;23848;49.798;10.228;2024-01-07T16:40:10;2.40;;;1.48;;
26756;SDS011;23848;49.798;10.228;2024-01-07T16:42:39;3.72;;;1.85;;
26756;SDS011;23848;49.798;10.228;2024-01-07T16:45:10;4.28;;;2.25;;
26756;SDS011;23848;49.798;10.228;2024-01-07T16:47:38;3.65;;;2.13;;
26756;SDS011;23848;49.798;10.228;2024-01-07T16:50:06;3.50;;;2.38;;
26756;SDS011;23848;49.798;10.228;2024-01-07T16:52:49;3.80;;;1.90;;
26756;SDS011;23848;49.798;10.228;2024-01-07T16:55:21;4.82;;;2.13;;
26756;SDS011;23848;49.798;10.228;2024-01-07T16:57:49;3.53;;;1.95;;
26756;SDS011;23848;49.798;10.228;2024-01-07T17:00:20;2.92;;;1.70;;
26756;SDS011;23848;49.798;10.228;2024-01-07T17:02:49;3.97;;;1.70;;
26756;SDS011;23848;49.798;10.228;2024-01-07T17:05:18;2.97;;;1.60;;
26756;SDS011;23848;49.798;10.228;2024-01-07T17:07:46;3.92;;;1.92;;
26756;SDS011;23848;49.798;10.228;2024-01-07T17:10:15;3.30;;;1.80;;
26756;SDS011;23848;49.798;10.228;2024-01-07T17:12:45;4.18;;;2.08;;
26756;SDS011;23848;49.798;10.228;2024-01-07T17:15:13;3.92;;;1.73;;
26756;SDS011;23848;49.798;10.228;2024-01-07T17:17:42;3.47;;;1.88;;
26756;SDS011;23848;49.798;10.228;2024-01-07T17:20:13;4.30;;;2.30;;
26756;SDS011;23848;49.798;10.228;2024-01-07T17:22:44;3.15;;;1.77;;
26756;SDS011;23848;49.798;10.228;2024-01-07T17:25:14;4.03;;;1.92;;
26756;SDS011;23848;49.798;10.228;2024-01-07T17:27:44;2.65;;;1.67;;
26756;SDS011;23848;49.798;10.228;2024-01-07T17:30:15;4.97;;;2.83;;
26756;SDS011;23848;49.798;10.228;2024-01-07T17:32:43;2.83;;;1.60;;
26756;SDS011;23848;49.798;10.228;2024-01-07T17:35:12;5.38;;;1.83;;
26756;SDS011;23848;49.798;10.228;2024-01-07T17:37:41;4.25;;;2.10;;
26756;SDS011;23848;49.798;10.228;2024-01-07T17:40:10;2.92;;;1.70;;
26756;SDS011;23848;49.798;10.228;2024-01-07T17:42:39;3.45;;;2.03;;
26756;SDS011;23848;49.798;10.228;2024-01-07T17:45:09;4.57;;;2.15;;
26756;SDS011;23848;49.798;10.228;2024-01-07T17:47:38;4.03;;;2.35;;
26756;SDS011;23848;49.798;10.228;2024-01-07T17:50:07;4.47;;;1.80;;
26756;SDS011;23848;49.798;10.228;2024-01-07T17:52:37;3.55;;;1.98;;
26756;SDS011;23848;49.798;10.228;2024-01-07T17:55:06;5.28;;;2.15;;
26756;SDS011;23848;49.798;10.228;2024-01-07T17:57:35;4.20;;;2.15;;
26756;SDS011;23848;49.798;10.228;2024-01-07T18:00:04;5.47;;;1.65;;
26756;SDS011;23848;49.798;10.228;2024-01-07T18:02:35;3.90;;;2.17;;
26756;SDS011;23848;49.798;10.228;2024-01-07T18:05:05;3.95;;;2.13;;
26756;SDS011;23848;49.798;10.228;2024-01-07T18:07:34;3.55;;;1.95;;
26756;SDS011;23848;49.798;10.228;2024-01-07T18:10:03;3.13;;;1.73;;
26756;SDS011;23848;49.798;10.228;2024-01-07T18:12:37;4.70;;;2.60;;
26756;SDS011;23848;49.798;10.228;2024-01-07T18:15:07;5.78;;;2.83;;
26756;SDS011;23848;49.798;10.228;2024-01-07T18:17:38;5.40;;;2.90;;
26756;SDS011;23848;49.798;10.228;2024-01-07T18:20:10;3.17;;;2.17;;
26756;SDS011;23848;49.798;10.228;2024-01-07T18:22:39;3.50;;;2.25;;
26756;SDS011;23848;49.798;10.228;2024-01-07T18:25:09;4.22;;;2.33;;
26756;SDS011;23848;49.798;10.228;2024-01-07T18:27:38;3.10;;;2.10;;
26756;SDS011;23848;49.798;10.228;2024-01-07T18:30:07;3.33;;;1.73;;